Au Sable Chasm, New York
Current Conditions -  °F | °C
As of 11:53 PM on Sunday 23 Nov 2014 (Local Time) from KPBG Reporting Station
Broken Clouds Broken Clouds  
Wind Chill: 40°   Ceiling: 9000
Heat Index: 47°   Visibility: 10mi
Dew Point: 38°   Wind: 16mph
Humidity: 71%   Direction: 160°SSE
Pressure: 29.91"   Gusts: NA
Location:  44.5125°N, 73.5235°W
Report Text: KPBG 240453Z AUTO 16014KT 10SM BKN090 08/03 A2991 RMK AO2 SLP129 T00830033 400890028
Loading
Personal Weather Stations






























Interactive Weather Map New forecast layout! Learn more

10-Day Weather Forecast

Advertisements
Track Severe Weather on mobile